Time;durP1;ratioP1;P1;durP2;ratioP2;P2;SDS_P1;SDS_P2;PMS_P1;PMS_P2;Temp;Humidity;BMP_temperature;BMP_pressure;BME280_temperature;BME280_humidity;BME280_pressure;Samples;Min_cycle;Max_cycle;Signal;HPM_P1;HPM_P2
2020/12/11 00:01:40;;;;;;;42.67;20.67;;;;;;;6.89;86.29;100397.76;127379;1092;104494;-79
2020/12/11 00:04:09;;;;;;;38.93;18.27;;;;;;;6.87;86.08;100388.94;127374;1092;104614;-80
2020/12/11 00:06:38;;;;;;;42.33;19.33;;;;;;;6.88;85.99;100401.17;127433;1091;104429;-79
2020/12/11 00:09:07;;;;;;;33.67;15.87;;;;;;;6.88;86.36;100389.86;127366;1092;104598;-78
2020/12/11 00:11:36;;;;;;;38.23;19.27;;;;;;;6.83;86.35;100395.73;127376;1091;104570;-78
2020/12/11 00:14:05;;;;;;;35.27;15.77;;;;;;;6.86;86.29;100388.87;127407;1092;104554;-79
2020/12/11 00:16:35;;;;;;;30.67;14.53;;;;;;;6.86;85.94;100386.26;127339;1092;104420;-79
2020/12/11 00:19:04;;;;;;;36.83;17.37;;;;;;;6.85;86.02;100387.98;127372;1092;104414;-77
2020/12/11 00:21:39;;;;;;;37.27;15.17;;;;;;;6.86;85.94;100391.47;127326;1091;104530;-79
2020/12/11 00:24:09;;;;;;;42.90;19.17;;;;;;;6.86;85.86;100396.69;127278;1091;104429;-78
2020/12/11 00:26:38;;;;;;;39.83;18.33;;;;;;;6.87;86.03;100395.89;127380;1092;104421;-79
2020/12/11 00:29:07;;;;;;;36.43;18.07;;;;;;;6.88;86.03;100384.64;127371;1092;104490;-78
2020/12/11 00:31:38;;;;;;;36.10;17.40;;;;;;;6.88;86.03;100387.25;127386;1091;104461;-79
2020/12/11 00:34:07;;;;;;;37.27;18.37;;;;;;;6.89;86.16;100383.80;127411;1092;104673;-78
2020/12/11 00:36:36;;;;;;;40.53;20.07;;;;;;;6.88;86.27;100382.03;127309;1092;104586;-80
2020/12/11 00:39:05;;;;;;;42.47;20.67;;;;;;;6.89;85.88;100371.67;127352;1092;104612;-78
2020/12/11 00:41:38;;;;;;;36.30;19.07;;;;;;;6.89;85.58;100381.19;127360;1092;104484;-78
2020/12/11 00:44:07;;;;;;;42.63;21.87;;;;;;;6.83;85.83;100381.81;127390;1091;104436;-79
2020/12/11 00:46:36;;;;;;;42.15;20.50;;;;;;;6.79;85.94;100383.38;127404;1092;104427;-78
2020/12/11 00:49:05;;;;;;;34.73;17.80;;;;;;;6.77;86.06;100392.83;127359;1092;104451;-78
2020/12/11 00:51:34;;;;;;;39.50;19.70;;;;;;;6.73;85.75;100380.48;127356;1092;104516;-80
2020/12/11 00:54:03;;;;;;;36.77;17.20;;;;;;;6.72;85.98;100391.71;127346;1091;104532;-79
2020/12/11 00:56:32;;;;;;;37.83;17.60;;;;;;;6.68;85.74;100383.66;127372;1091;104429;-78
2020/12/11 00:59:01;;;;;;;30.87;14.80;;;;;;;6.65;85.44;100382.70;127333;1091;104484;-79
2020/12/11 01:01:35;;;;;;;34.10;16.50;;;;;;;6.62;85.42;100385.16;127386;1092;104430;-79
2020/12/11 01:04:04;;;;;;;;;;;;;;;6.57;85.81;100377.91;127482;1092;104439;-78
2020/12/11 01:06:33;;;;;;;33.27;15.20;;;;;;;6.53;85.85;100375.96;127411;1092;104573;-78
2020/12/11 01:09:01;;;;;;;28.03;13.40;;;;;;;6.51;86.01;100369.78;127421;1092;104438;-79
2020/12/11 01:11:31;;;;;;;36.63;17.80;;;;;;;6.48;85.71;100384.47;127387;1092;104439;-78
2020/12/11 01:14:00;;;;;;;33.33;16.03;;;;;;;6.45;85.62;100370.36;127372;1091;104434;-78
2020/12/11 01:16:28;;;;;;;31.63;14.33;;;;;;;6.41;85.64;100374.54;127398;1092;104488;-78
2020/12/11 01:18:57;;;;;;;34.17;15.30;;;;;;;6.39;85.78;100362.23;127426;1092;104433;-78
2020/12/11 01:21:26;;;;;;;30.03;13.67;;;;;;;6.36;85.80;100370.81;127400;1092;104449;-78
2020/12/11 01:23:56;;;;;;;29.37;14.90;;;;;;;6.34;85.61;100364.61;127409;1092;104429;-79
2020/12/11 01:26:25;;;;;;;36.27;16.67;;;;;;;6.32;85.74;100370.58;127314;1092;104484;-78
2020/12/11 01:28:54;;;;;;;34.30;16.70;;;;;;;6.27;85.71;100371.23;127367;1092;104435;-79
2020/12/11 01:31:23;;;;;;;28.27;13.27;;;;;;;6.25;85.75;100380.70;127363;1092;104432;-79
2020/12/11 01:33:52;;;;;;;29.53;14.27;;;;;;;6.24;85.61;100368.47;127345;1091;104451;-79
2020/12/11 01:36:30;;;;;;;27.90;13.03;;;;;;;6.21;85.60;100367.43;127352;1092;103181;-79
2020/12/11 01:38:59;;;;;;;30.80;15.37;;;;;;;6.18;85.49;100364.66;127311;1092;104554;-79
2020/12/11 01:41:31;;;;;;;31.40;15.17;;;;;;;6.19;85.80;100367.35;127344;1092;104439;-77
2020/12/11 01:44:06;;;;;;;30.83;14.10;;;;;;;6.20;85.66;100365.63;127325;1092;104451;-79
2020/12/11 01:46:39;;;;;;;29.03;12.50;;;;;;;6.20;85.63;100363.94;127350;1092;104615;-78
2020/12/11 01:49:09;;;;;;;33.80;15.53;;;;;;;6.17;85.59;100365.47;127322;1091;104436;-79
2020/12/11 01:51:39;;;;;;;32.43;14.87;;;;;;;6.14;85.46;100367.92;127332;1092;104758;-78
2020/12/11 01:54:08;;;;;;;30.20;13.73;;;;;;;6.07;85.38;100375.42;127405;1092;104563;-78
2020/12/11 01:56:45;;;;;;;25.70;11.63;;;;;;;6.00;85.28;100378.55;127360;1092;104458;-78
2020/12/11 01:59:26;;;;;;;30.40;13.83;;;;;;;5.92;85.64;100378.11;127381;1092;104439;-78
2020/12/11 02:01:59;;;;;;;29.93;14.93;;;;;;;5.88;85.40;100386.56;127349;1091;104684;-78
2020/12/11 02:04:28;;;;;;;32.37;14.80;;;;;;;5.86;85.46;100382.08;127333;1092;104439;-78
2020/12/11 02:06:58;;;;;;;33.27;15.27;;;;;;;5.81;85.85;100381.83;127410;1092;104798;-78
2020/12/11 02:09:28;;;;;;;33.10;16.23;;;;;;;5.77;85.54;100390.31;127393;1092;104439;-78
2020/12/11 02:11:57;;;;;;;30.87;14.00;;;;;;;5.74;85.69;100387.55;127366;1092;104554;-78
2020/12/11 02:14:26;;;;;;;33.30;17.13;;;;;;;5.69;85.79;100384.70;127388;1092;104605;-79
2020/12/11 02:16:59;;;;;;;29.57;13.97;;;;;;;5.70;85.67;100377.77;127376;1092;104426;-78
2020/12/11 02:19:32;;;;;;;34.17;16.87;;;;;;;5.69;85.78;100365.59;127421;1091;104491;-78
2020/12/11 02:22:03;;;;;;;37.78;19.00;;;;;;;5.67;85.97;100369.80;127355;1092;104453;-78
2020/12/11 02:24:33;;;;;;;31.83;16.30;;;;;;;5.67;85.79;100373.32;127391;1091;104429;-78
2020/12/11 02:27:03;;;;;;;42.10;18.87;;;;;;;5.67;85.68;100370.72;127364;1091;104545;-78
2020/12/11 02:29:32;;;;;;;35.00;15.90;;;;;;;5.70;85.85;100372.56;127393;1092;104522;-80
2020/12/11 02:32:01;;;;;;;32.97;17.10;;;;;;;5.71;85.47;100370.05;127337;1092;104427;-79
2020/12/11 02:34:30;;;;;;;36.60;17.23;;;;;;;5.71;85.48;100359.63;127321;1092;104430;-80
2020/12/11 02:37:02;;;;;;;36.93;18.27;;;;;;;5.73;85.74;100358.02;127361;1091;104513;-79
2020/12/11 02:39:31;;;;;;;39.93;18.40;;;;;;;5.78;85.84;100367.77;127364;1091;104552;-78
2020/12/11 02:41:59;;;;;;;39.80;19.60;;;;;;;5.75;85.56;100365.91;127402;1092;104564;-78
2020/12/11 02:44:28;;;;;;;37.57;17.97;;;;;;;5.70;85.51;100367.36;127408;1091;104436;-77
2020/12/11 02:46:57;;;;;;;36.07;18.67;;;;;;;5.67;85.72;100368.11;127367;1091;104480;-79
2020/12/11 02:49:26;;;;;;;39.17;19.30;;;;;;;5.66;85.44;100371.52;127427;1092;104449;-79
2020/12/11 02:51:56;;;;;;;42.90;20.40;;;;;;;5.64;85.52;100375.76;127350;1092;104449;-80
2020/12/11 02:54:25;;;;;;;38.43;18.57;;;;;;;5.65;85.34;100372.32;127345;1092;104490;-78
2020/12/11 02:56:54;;;;;;;37.40;17.63;;;;;;;5.64;85.57;100391.38;127368;1092;104439;-78
2020/12/11 02:59:23;;;;;;;41.50;19.37;;;;;;;5.61;85.42;100379.88;127350;1091;104429;-78
2020/12/11 03:01:52;;;;;;;40.73;18.80;;;;;;;5.60;85.80;100385.92;127351;1092;104554;-77
2020/12/11 03:04:21;;;;;;;40.57;18.70;;;;;;;5.58;85.71;100385.84;127366;1092;104424;-79
2020/12/11 03:06:49;;;;;;;42.40;20.03;;;;;;;5.56;85.69;100384.84;127362;1092;104430;-75
2020/12/11 03:09:18;;;;;;;38.43;18.43;;;;;;;5.57;85.60;100381.44;127433;1092;104450;-75
2020/12/11 03:11:47;;;;;;;41.47;17.63;;;;;;;5.58;85.40;100383.23;127393;1092;104435;-76
2020/12/11 03:14:16;;;;;;;40.90;18.57;;;;;;;5.57;85.60;100378.83;127394;1091;104557;-76
2020/12/11 03:16:45;;;;;;;33.37;14.20;;;;;;;5.57;85.78;100381.44;127394;1092;104452;-76
2020/12/11 03:19:14;;;;;;;34.67;16.00;;;;;;;5.54;85.62;100374.34;127379;1091;104490;-77
2020/12/11 03:21:43;;;;;;;39.30;18.50;;;;;;;5.54;85.50;100378.67;127382;1091;104608;-77
2020/12/11 03:24:12;;;;;;;36.70;16.77;;;;;;;5.52;85.52;100378.59;127387;1092;104424;-74
2020/12/11 03:26:41;;;;;;;35.80;17.63;;;;;;;5.50;85.31;100375.02;127405;1091;104497;-76
2020/12/11 03:29:10;;;;;;;34.33;15.80;;;;;;;5.47;85.39;100379.14;127368;1092;104446;-77
2020/12/11 03:31:38;;;;;;;37.40;16.73;;;;;;;5.46;85.52;100382.58;127372;1092;104433;-75
2020/12/11 03:34:07;;;;;;;37.50;16.27;;;;;;;5.46;85.74;100380.86;127333;1092;104272;-77
2020/12/11 03:36:36;;;;;;;35.07;15.17;;;;;;;5.46;85.20;100374.77;127363;1092;104554;-77
2020/12/11 03:39:05;;;;;;;37.30;16.97;;;;;;;5.48;85.36;100367.92;127359;1092;104429;-77
2020/12/11 03:41:34;;;;;;;33.97;15.40;;;;;;;5.44;85.39;100373.77;127350;1092;104490;-76
2020/12/11 03:44:03;;;;;;;33.97;17.10;;;;;;;5.38;85.59;100363.94;127371;1092;104490;-76
2020/12/11 03:46:31;;;;;;;35.37;16.03;;;;;;;5.36;85.36;100371.66;127410;1091;104471;-76
2020/12/11 03:49:00;;;;;;;30.47;12.80;;;;;;;5.34;85.77;100373.27;127375;1092;104583;-76
2020/12/11 03:51:29;;;;;;;34.93;16.87;;;;;;;5.36;85.35;100369.06;127406;1091;104510;-76
2020/12/11 03:53:58;;;;;;;35.47;15.73;;;;;;;5.36;85.46;100375.95;127388;1091;104478;-76
2020/12/11 03:56:27;;;;;;;37.23;16.73;;;;;;;5.37;85.64;100373.43;127306;1092;104436;-76
2020/12/11 03:58:56;;;;;;;34.73;15.97;;;;;;;5.39;85.23;100377.03;127400;1092;104546;-75
2020/12/11 04:01:25;;;;;;;37.00;17.33;;;;;;;5.35;85.42;100372.46;127404;1092;104452;-76
2020/12/11 04:03:55;;;;;;;35.63;15.67;;;;;;;5.31;85.54;100377.42;127360;1092;104446;-75
2020/12/11 04:06:24;;;;;;;31.27;14.40;;;;;;;5.27;85.12;100378.97;127376;1092;104452;-77
2020/12/11 04:08:53;;;;;;;39.37;17.80;;;;;;;5.26;85.34;100381.48;127299;1092;104523;-76
2020/12/11 04:11:26;;;;;;;31.37;13.40;;;;;;;5.22;85.52;100385.63;127330;1092;104490;-75
2020/12/11 04:14:15;;;;;;;36.50;15.90;;;;;;;5.20;85.58;100382.95;127415;1092;104413;-77
2020/12/11 04:17:03;;;;;;;37.95;16.65;;;;;;;5.20;85.47;100389.83;127370;1092;104432;-77
2020/12/11 04:19:31;;;;;;;31.40;14.87;;;;;;;5.20;85.17;100384.62;127363;1091;104551;-79
2020/12/11 04:22:02;;;;;;;26.87;11.37;;;;;;;5.20;85.42;100384.62;127318;1092;104429;-77
2020/12/11 04:24:31;;;;;;;37.43;16.23;;;;;;;5.17;85.58;100382.77;127357;1092;104426;-80
2020/12/11 04:27:00;;;;;;;34.37;15.20;;;;;;;5.14;85.42;100371.28;127359;1092;104458;-77
2020/12/11 04:29:29;;;;;;;38.33;16.47;;;;;;;5.12;85.40;100373.80;127340;1091;104891;-78
2020/12/11 04:32:00;;;;;;;35.57;17.27;;;;;;;5.08;85.56;100373.55;127373;1091;104554;-79
2020/12/11 04:34:28;;;;;;;35.33;16.33;;;;;;;5.07;85.51;100372.66;127300;1092;104487;-78
2020/12/11 04:36:59;;;;;;;33.93;15.63;;;;;;;5.07;85.28;100377.86;127376;1091;104426;-78
2020/12/11 04:39:27;;;;;;;34.60;14.77;;;;;;;5.08;85.22;100373.55;127409;1092;104432;-77
2020/12/11 04:41:58;;;;;;;36.87;15.60;;;;;;;5.07;85.20;100382.17;127412;1092;104445;-76
2020/12/11 04:44:27;;;;;;;34.30;16.30;;;;;;;5.05;85.19;100389.89;127329;1092;104528;-76
2020/12/11 04:47:07;;;;;;;29.87;12.73;;;;;;;5.04;85.35;100388.98;127343;1091;104432;-78
2020/12/11 04:49:41;;;;;;;30.73;12.80;;;;;;;5.04;85.61;100388.98;127355;1092;104488;-78
2020/12/11 04:52:18;;;;;;;37.77;15.63;;;;;;;5.06;85.62;100380.38;127298;1091;104606;-79
2020/12/11 04:54:50;;;;;;;35.77;15.30;;;;;;;5.10;85.28;100384.95;127420;1091;104439;-79
2020/12/11 04:57:25;;;;;;;33.90;15.40;;;;;;;5.09;85.27;100386.63;127330;1092;104612;-77
2020/12/11 04:59:54;;;;;;;37.90;17.40;;;;;;;5.06;85.28;100396.86;127294;1092;104554;-78
2020/12/11 05:02:26;;;;;;;33.90;15.17;;;;;;;5.06;85.64;100385.58;127358;1092;104432;-78
2020/12/11 05:04:55;;;;;;;31.93;14.37;;;;;;;5.04;84.84;100388.09;127348;1092;104442;-78
2020/12/11 05:07:24;;;;;;;33.70;15.07;;;;;;;5.04;85.08;100388.09;127318;1091;104528;-78
2020/12/11 05:09:57;;;;;;;35.57;16.23;;;;;;;5.02;85.25;100390.61;127367;1092;104436;-77
2020/12/11 05:12:26;;;;;;;42.23;18.53;;;;;;;5.04;85.74;100390.69;127328;1091;104455;-81
2020/12/11 05:14:59;;;;;;;40.10;17.53;;;;;;;5.07;85.09;100396.06;127351;1092;104433;-81
2020/12/11 05:17:30;;;;;;;42.23;19.87;;;;;;;5.07;85.24;100401.27;127339;1091;104493;-82
2020/12/11 05:20:00;;;;;;;39.13;19.10;;;;;;;5.10;85.23;100400.55;127308;1092;104484;-82
2020/12/11 05:22:32;;;;;;;35.00;15.40;;;;;;;5.10;85.16;100405.75;127342;1092;104550;-78
2020/12/11 05:25:02;;;;;;;37.50;18.13;;;;;;;5.06;85.43;100402.06;127307;1092;104557;-81
2020/12/11 05:27:38;;;;;;;35.67;15.77;;;;;;;5.08;85.75;100405.67;127376;1092;104499;-77
2020/12/11 05:30:23;;;;;;;37.90;16.60;;;;;;;5.05;85.31;100405.50;127340;1092;104491;-80
2020/12/11 05:32:54;;;;;;;35.90;16.50;;;;;;;5.04;85.19;100406.30;127372;1092;104475;-80
2020/12/11 05:35:30;;;;;;;35.90;16.10;;;;;;;5.04;85.23;100407.18;127412;1092;104545;-80
2020/12/11 05:38:03;;;;;;;35.37;15.73;;;;;;;5.01;85.60;100407.01;127349;1092;104698;-80
2020/12/11 05:40:34;;;;;;;31.45;14.25;;;;;;;5.00;85.28;100407.84;127371;1092;104434;-81
2020/12/11 05:43:12;;;;;;;34.80;15.97;;;;;;;4.98;85.53;100412.03;127390;1092;104430;-80
2020/12/11 05:45:48;;;;;;;37.43;16.73;;;;;;;4.96;85.37;100411.06;127371;1091;104445;-78
2020/12/11 05:48:18;;;;;;;34.43;16.80;;;;;;;4.96;85.67;100405.86;127388;1092;104592;-82
2020/12/11 05:50:47;;;;;;;36.77;16.27;;;;;;;5.00;85.69;100415.64;127326;1092;104560;-79
2020/12/11 05:53:16;;;;;;;36.13;16.47;;;;;;;4.97;85.14;100407.66;127398;1092;104439;-78
2020/12/11 05:55:46;;;;;;;34.87;15.57;;;;;;;4.97;85.30;100424.95;127319;1091;104560;-78
2020/12/11 05:58:16;;;;;;;34.17;14.93;;;;;;;4.95;85.22;100430.06;127381;1092;104493;-80
2020/12/11 06:00:46;;;;;;;30.70;12.87;;;;;;;4.96;85.16;100430.98;127311;1092;104554;-79
2020/12/11 06:03:16;;;;;;;36.17;16.23;;;;;;;4.93;85.15;100431.69;127337;1092;104615;-81
2020/12/11 06:05:47;;;;;;;33.33;15.03;;;;;;;4.91;85.21;100433.31;127333;1092;104549;-80
2020/12/11 06:08:20;;;;;;;34.87;15.97;;;;;;;4.91;85.27;100443.72;127379;1092;103737;-80
2020/12/11 06:10:50;;;;;;;39.50;16.17;;;;;;;4.91;84.56;100441.12;127388;1092;104445;-80
2020/12/11 06:13:36;;;;;;;34.33;13.60;;;;;;;4.90;85.01;100431.52;127344;1092;104620;-79
2020/12/11 06:16:06;;;;;;;28.17;12.73;;;;;;;4.85;85.06;100441.66;127339;1092;104561;-80
2020/12/11 06:18:38;;;;;;;32.23;14.33;;;;;;;4.78;84.59;100431.69;127409;1092;104426;-78
2020/12/11 06:21:07;;;;;;;34.33;14.83;;;;;;;4.73;85.07;100440.05;127305;1092;104451;-77
2020/12/11 06:23:41;;;;;;;32.80;15.13;;;;;;;4.68;84.64;100435.47;127343;1092;104445;-77
2020/12/11 06:26:15;;;;;;;30.07;14.67;;;;;;;4.67;84.93;100432.78;127333;1092;104884;-78
2020/12/11 06:28:46;;;;;;;33.00;14.30;;;;;;;4.63;85.08;100438.63;127321;1092;104426;-77
2020/12/11 06:31:17;;;;;;;29.80;12.77;;;;;;;4.58;84.99;100433.16;127361;1092;104513;-77
2020/12/11 06:33:50;;;;;;;32.70;15.27;;;;;;;4.55;84.53;100432.06;127339;1092;104549;-83
2020/12/11 06:36:20;;;;;;;32.55;13.65;;;;;;;4.55;84.77;100437.27;127352;1091;104551;-81
2020/12/11 06:39:13;;;;;;;30.00;13.53;;;;;;;4.52;84.46;100437.08;127313;1092;104484;-83
2020/12/11 06:41:50;;;;;;;28.57;13.87;;;;;;;4.55;84.69;100432.06;127223;1092;104465;-88
2020/12/11 06:44:22;;;;;;;28.87;12.50;;;;;;;4.58;84.44;100427.97;127277;1092;104449;-83
2020/12/11 06:47:06;;;;;;;23.33;9.70;;;;;;;4.55;85.33;100427.78;127245;1092;104455;-84
2020/12/11 06:49:58;;;;;;;35.37;15.80;;;;;;;4.48;84.51;100412.63;127333;1092;104475;-86
2020/12/11 06:52:35;;;;;;;31.17;14.03;;;;;;;4.44;84.95;100418.44;127370;1091;104494;-81
2020/12/11 06:55:04;;;;;;;29.13;12.97;;;;;;;4.47;85.44;100421.22;127319;1092;104451;-81
2020/12/11 06:57:40;;;;;;;25.90;12.13;;;;;;;4.49;84.55;100419.63;127389;1092;104554;-79
2020/12/11 07:00:27;;;;;;;32.47;14.07;;;;;;;4.50;84.58;100424.00;127351;1091;104427;-79
2020/12/11 07:03:23;;;;;;;31.57;15.90;;;;;;;4.50;84.61;100421.40;127381;1092;104436;-80
2020/12/11 07:06:04;;;;;;;33.40;15.13;;;;;;;4.50;85.12;100424.92;127356;1092;104574;-81
2020/12/11 07:08:36;;;;;;;30.90;13.60;;;;;;;4.50;85.02;100419.72;127326;1092;104535;-83
2020/12/11 07:11:11;;;;;;;27.37;12.53;;;;;;;4.50;84.47;100426.59;127375;1092;104420;-85
2020/12/11 07:13:52;;;;;;;34.07;15.17;;;;;;;4.54;85.16;100425.09;127374;1092;104430;-80
2020/12/11 07:16:22;;;;;;;31.50;14.73;;;;;;;4.59;84.62;100424.53;127406;1092;104439;-82
2020/12/11 07:18:52;;;;;;;33.13;15.20;;;;;;;4.58;84.97;100422.77;127399;1091;104558;-83
2020/12/11 07:21:28;;;;;;;26.87;12.07;;;;;;;4.55;84.38;100422.59;127339;1091;104478;-80
2020/12/11 07:24:01;;;;;;;28.83;12.53;;;;;;;4.48;84.23;100428.22;127361;1092;104442;-81
2020/12/11 07:26:35;;;;;;;29.37;13.63;;;;;;;4.32;83.96;100431.62;127354;1091;104505;-78
2020/12/11 07:29:07;;;;;;;29.95;13.88;;;;;;;4.23;84.15;100433.67;127367;1092;104494;-81
2020/12/11 07:31:40;;;;;;;36.20;15.13;;;;;;;4.28;84.63;100434.83;127377;1092;104554;-79
2020/12/11 07:34:16;;;;;;;32.60;14.13;;;;;;;4.30;84.36;100435.80;127362;1092;104570;-83
2020/12/11 07:36:54;;;;;;;29.53;13.90;;;;;;;4.32;85.10;100435.11;127348;1092;104490;-80
2020/12/11 07:39:26;;;;;;;30.57;12.17;;;;;;;4.30;84.60;100436.72;127371;1092;104430;-81
2020/12/11 07:42:00;;;;;;;34.37;12.00;;;;;;;4.28;84.36;100438.31;127355;1091;104593;-83
2020/12/11 07:44:33;;;;;;;28.90;13.10;;;;;;;4.26;84.66;100437.33;127414;1092;104440;-82
2020/12/11 07:47:09;;;;;;;32.00;13.83;;;;;;;4.25;84.73;100438.13;127251;1092;104442;-81
2020/12/11 07:49:40;;;;;;;28.83;13.47;;;;;;;4.28;84.59;100432.23;127264;1092;104438;-81
2020/12/11 07:52:10;;;;;;;30.77;14.70;;;;;;;4.36;84.80;100437.89;127262;1092;104596;-82
2020/12/11 07:54:41;;;;;;;32.03;15.40;;;;;;;4.38;84.28;100436.27;127330;1092;104598;-80
2020/12/11 07:57:16;;;;;;;34.37;15.03;;;;;;;4.37;84.10;100444.88;127294;1092;104506;-77
2020/12/11 07:59:58;;;;;;;26.57;11.60;;;;;;;4.28;83.94;100446.10;127260;1092;105014;-79
2020/12/11 08:02:29;;;;;;;28.00;11.83;;;;;;;4.19;83.96;100448.18;127285;1092;104445;-77
2020/12/11 08:05:09;;;;;;;31.00;11.67;;;;;;;4.20;84.12;100451.66;127267;1091;104439;-76
2020/12/11 08:07:39;;;;;;;22.33;9.53;;;;;;;4.21;83.70;100443.08;127284;1092;104440;-83
2020/12/11 08:10:12;;;;;;;23.90;10.57;;;;;;;4.16;83.62;100448.00;127300;1092;104621;-85
2020/12/11 08:12:42;;;;;;;25.70;10.53;;;;;;;4.12;83.83;100452.09;127223;1092;104623;-79
2020/12/11 08:15:29;;;;;;;24.60;11.20;;;;;;;4.04;83.36;100436.86;127300;1092;104599;-82
2020/12/11 08:18:27;;;;;;;25.70;11.20;;;;;;;3.95;83.79;100432.88;127300;1091;104427;-81
2020/12/11 08:20:58;;;;;;;24.40;10.20;;;;;;;3.86;83.52;100436.63;127420;1092;104445;-80
2020/12/11 08:23:41;;;;;;;26.80;10.97;;;;;;;3.78;83.87;100436.15;127373;1091;104481;-81
2020/12/11 08:26:20;;;;;;;24.70;10.43;;;;;;;3.75;84.14;100438.55;127317;1092;104427;-84
2020/12/11 08:29:02;;;;;;;25.83;11.23;;;;;;;3.76;84.39;100427.37;127267;1092;104440;-89
2020/12/11 08:31:37;;;;;;;26.87;12.00;;;;;;;3.75;83.94;100431.66;127293;1092;104867;-82
2020/12/11 08:34:08;;;;;;;24.73;10.53;;;;;;;3.71;83.47;100431.37;127286;1092;105045;-81
2020/12/11 08:36:39;;;;;;;23.77;10.10;;;;;;;3.65;83.38;100425.83;127263;1092;104824;-78
2020/12/11 08:39:15;;;;;;;25.37;11.00;;;;;;;3.57;83.49;100422.75;127324;1092;104437;-82
2020/12/11 08:42:07;;;;;;;25.10;12.13;;;;;;;3.61;84.51;100419.53;127336;1092;104436;-81
2020/12/11 08:50:24;;;;;;;27.40;12.33;;;;;;;3.64;83.57;100421.43;127270;1092;104755;-79
2020/12/11 08:52:57;;;;;;;29.97;13.03;;;;;;;3.65;84.01;100413.73;127242;1092;104330;-76
2020/12/11 08:55:26;;;;;;;28.60;13.77;;;;;;;3.73;84.61;100409.91;127300;1092;104512;-75
2020/12/11 08:57:56;;;;;;;30.20;13.43;;;;;;;3.83;84.48;100410.48;127327;1091;104529;-77
2020/12/11 09:00:26;;;;;;;26.43;12.93;;;;;;;3.91;84.03;100415.34;127386;1091;104436;-77
2020/12/11 09:02:55;;;;;;;30.17;14.20;;;;;;;4.00;84.19;100414.09;127385;1092;104433;-73
2020/12/11 09:05:26;;;;;;;28.60;10.53;;;;;;;3.98;84.03;100406.22;127274;1092;104659;-77
2020/12/11 09:08:06;;;;;;;29.67;10.70;;;;;;;3.89;83.05;100409.14;127330;1091;104439;-80
2020/12/11 09:10:36;;;;;;;27.27;11.17;;;;;;;3.89;84.15;100400.47;127366;1092;104621;-77
2020/12/11 09:13:07;;;;;;;28.83;11.80;;;;;;;3.90;83.90;100400.56;127320;1092;104435;-79
2020/12/11 09:15:36;;;;;;;31.40;12.50;;;;;;;3.91;84.02;100399.77;127358;1092;104590;-83
2020/12/11 09:18:06;;;;;;;29.17;12.17;;;;;;;3.98;84.09;100400.14;127331;1092;104499;-77
2020/12/11 09:20:35;;;;;;;24.10;10.80;;;;;;;4.01;83.89;100398.61;127361;1092;104536;-78
2020/12/11 09:23:15;;;;;;;26.20;9.87;;;;;;;4.02;83.49;100392.63;127348;1092;104513;-81
2020/12/11 09:25:48;;;;;;;26.40;9.77;;;;;;;4.10;83.61;100393.09;127373;1092;104538;-81
2020/12/11 09:28:25;;;;;;;22.13;10.00;;;;;;;4.17;83.94;100391.75;127287;1092;104433;-83
2020/12/11 09:31:20;;;;;;;23.90;8.95;;;;;;;4.21;83.08;100397.21;127252;1092;104551;-80
2020/12/11 09:33:49;;;;;;;28.30;11.30;;;;;;;4.05;83.10;100394.48;127291;1092;104490;-79
2020/12/11 09:36:19;;;;;;;26.20;10.70;;;;;;;3.92;82.90;100388.55;127277;1092;104478;-85
2020/12/11 09:38:56;;;;;;;24.37;9.90;;;;;;;3.81;82.38;100391.33;127346;1092;104557;-84
2020/12/11 09:41:29;;;;;;;28.33;12.97;;;;;;;3.72;82.54;100376.08;127295;1092;104443;-83
2020/12/11 09:44:37;;;;;;;25.80;11.93;;;;;;;3.69;83.16;100375.89;127282;1091;104552;-79
2020/12/11 09:53:20;;;;;;;26.20;9.87;;;;;;;3.56;83.05;100374.25;127387;1092;104432;-85
2020/12/11 09:56:03;;;;;;;28.17;11.37;;;;;;;3.57;83.10;100387.31;127361;1092;104471;-83
2020/12/11 09:58:38;;;;;;;28.33;12.13;;;;;;;3.60;82.82;100395.29;127271;1092;104612;-85
2020/12/11 10:01:19;;;;;;;26.03;12.13;;;;;;;3.62;82.80;100400.58;127364;1092;105006;-85
2020/12/11 10:03:53;;;;;;;30.70;11.90;;;;;;;3.64;82.96;100404.15;127297;1092;104475;-84
2020/12/11 10:06:32;;;;;;;26.73;12.07;;;;;;;3.62;83.49;100390.19;127309;1092;104440;-84
2020/12/11 10:09:01;;;;;;;28.20;12.40;;;;;;;3.64;82.91;100385.10;127304;1092;104689;-82
2020/12/11 10:11:32;;;;;;;26.43;12.43;;;;;;;3.63;82.97;100392.00;127256;1092;104420;-81
2020/12/11 10:14:15;;;;;;;28.70;13.50;;;;;;;3.65;83.03;100384.31;127295;1092;104494;-80
2020/12/11 10:16:44;;;;;;;27.07;12.33;;;;;;;3.67;83.78;100383.58;127343;1092;104498;-81
2020/12/11 10:19:13;;;;;;;26.30;10.13;;;;;;;3.69;83.96;100371.58;127376;1092;104478;-86
2020/12/11 10:21:45;;;;;;;25.50;10.70;;;;;;;3.69;83.41;100370.70;127333;1092;104436;-83
2020/12/11 10:24:15;;;;;;;26.07;10.97;;;;;;;3.63;83.43;100373.83;127320;1092;104452;-83
2020/12/11 10:26:47;;;;;;;25.30;11.27;;;;;;;3.64;82.80;100377.31;127443;1092;104497;-82
2020/12/11 10:29:19;;;;;;;29.07;13.30;;;;;;;3.66;83.57;100384.41;127394;1091;104430;-83
2020/12/11 10:31:50;;;;;;;24.40;8.67;;;;;;;3.70;83.39;100385.48;127399;1092;104436;-80
2020/12/11 10:34:22;;;;;;;25.12;10.50;;;;;;;3.73;83.77;100370.98;127393;1092;104564;-84
2020/12/11 10:36:51;;;;;;;25.80;11.00;;;;;;;3.73;83.01;100368.38;127379;1092;104429;-82
2020/12/11 10:39:21;;;;;;;25.07;10.90;;;;;;;3.68;82.78;100377.59;127358;1092;104430;-79
2020/12/11 10:41:51;;;;;;;22.93;10.17;;;;;;;3.64;82.72;100379.91;127356;1092;104559;-79
2020/12/11 10:44:20;;;;;;;27.87;11.97;;;;;;;3.57;82.37;100379.53;127358;1092;104430;-82
2020/12/11 10:46:51;;;;;;;30.47;12.57;;;;;;;3.57;82.88;100374.34;127403;1091;104433;-82
2020/12/11 10:49:21;;;;;;;26.20;11.17;;;;;;;3.52;82.56;100365.39;127352;1092;104320;-81
2020/12/11 10:51:51;;;;;;;25.73;10.83;;;;;;;3.43;82.96;100367.41;127380;1092;104555;-84
2020/12/11 10:54:26;;;;;;;26.43;11.33;;;;;;;3.37;82.61;100362.73;127395;1091;104442;-81
2020/12/11 10:56:55;;;;;;;25.83;10.53;;;;;;;3.33;82.19;100370.22;127372;1091;104455;-83
2020/12/11 10:59:26;;;;;;;25.57;11.57;;;;;;;3.33;83.29;100378.00;127312;1092;104570;-83
2020/12/11 11:01:58;;;;;;;24.00;9.70;;;;;;;3.22;81.89;100365.25;127256;1091;104538;-79
2020/12/11 11:04:52;;;;;;;23.60;9.67;;;;;;;3.13;83.48;100367.30;127399;1091;104493;-83
2020/12/11 11:07:29;;;;;;;21.30;9.10;;;;;;;3.06;82.26;100376.35;127283;1092;104516;-81
2020/12/11 11:10:13;;;;;;;21.20;8.57;;;;;;;2.98;82.74;100366.31;127394;1091;104432;-82
2020/12/11 11:12:44;;;;;;;;;;;;;;;2.96;82.67;100360.11;127405;1092;104497;-84
2020/12/11 11:15:33;;;;;;;23.70;11.17;;;;;;;2.90;82.46;100351.95;127335;1092;104563;-84
2020/12/11 11:18:17;;;;;;;23.37;10.97;;;;;;;2.86;82.41;100331.02;127388;1091;104429;-83
2020/12/11 11:23:45;;;;;;;22.97;10.17;;;;;;;2.86;82.51;100331.02;127404;1092;104436;-79
2020/12/11 11:26:31;;;;;;;23.40;9.60;;;;;;;2.87;82.99;100330.23;127361;1092;104578;-79
2020/12/11 11:29:00;;;;;;;28.30;12.57;;;;;;;2.95;83.49;100335.02;127330;1092;104926;-79
2020/12/11 11:31:29;;;;;;;24.43;10.80;;;;;;;3.00;83.11;100338.78;127365;1092;104490;-82
2020/12/11 11:34:01;;;;;;;24.03;10.97;;;;;;;2.98;82.75;100332.62;127337;1092;104564;-81
2020/12/11 11:36:31;;;;;;;23.20;10.03;;;;;;;2.92;82.73;100325.34;127381;1091;104430;-81
2020/12/11 11:39:00;;;;;;;18.90;7.57;;;;;;;2.87;82.30;100332.82;127383;1091;104458;-80
2020/12/11 11:46:57;;;;;;;21.77;8.13;;;;;;;2.78;82.70;100342.59;127373;1092;104558;-76